sensor_id;sensor_type;location;lat;lon;timestamp;P1;durP1;ratioP1;P2;durP2;ratioP2
11854;SDS011;5987;53.140;8.904;2023-08-12T00:02:05;6.77;;;4.47;;
11854;SDS011;5987;53.140;8.904;2023-08-12T00:05:08;4.70;;;3.67;;
11854;SDS011;5987;53.140;8.904;2023-08-12T00:08:13;6.60;;;3.60;;
11854;SDS011;5987;53.140;8.904;2023-08-12T00:11:17;6.07;;;3.33;;
11854;SDS011;5987;53.140;8.904;2023-08-12T00:14:22;6.23;;;3.70;;
11854;SDS011;5987;53.140;8.904;2023-08-12T00:17:28;9.57;;;5.17;;
11854;SDS011;5987;53.140;8.904;2023-08-12T00:20:32;8.00;;;5.10;;
11854;SDS011;5987;53.140;8.904;2023-08-12T00:23:37;8.77;;;6.20;;
11854;SDS011;5987;53.140;8.904;2023-08-12T00:26:43;6.43;;;4.93;;
11854;SDS011;5987;53.140;8.904;2023-08-12T00:29:47;8.60;;;5.60;;
11854;SDS011;5987;53.140;8.904;2023-08-12T00:32:52;6.27;;;5.67;;
11854;SDS011;5987;53.140;8.904;2023-08-12T00:35:56;9.47;;;5.37;;
11854;SDS011;5987;53.140;8.904;2023-08-12T00:39:00;7.33;;;5.47;;
11854;SDS011;5987;53.140;8.904;2023-08-12T00:42:05;6.43;;;5.07;;
11854;SDS011;5987;53.140;8.904;2023-08-12T00:45:24;14.07;;;6.07;;
11854;SDS011;5987;53.140;8.904;2023-08-12T00:48:29;7.30;;;5.30;;
11854;SDS011;5987;53.140;8.904;2023-08-12T00:51:34;10.83;;;5.93;;
11854;SDS011;5987;53.140;8.904;2023-08-12T00:54:38;12.83;;;6.37;;
11854;SDS011;5987;53.140;8.904;2023-08-12T00:57:42;7.93;;;5.10;;
11854;SDS011;5987;53.140;8.904;2023-08-12T01:00:46;13.93;;;5.80;;
11854;SDS011;5987;53.140;8.904;2023-08-12T01:03:52;8.77;;;5.63;;
11854;SDS011;5987;53.140;8.904;2023-08-12T01:06:56;9.13;;;4.77;;
11854;SDS011;5987;53.140;8.904;2023-08-12T01:10:00;11.70;;;5.87;;
11854;SDS011;5987;53.140;8.904;2023-08-12T01:13:07;11.00;;;5.13;;
11854;SDS011;5987;53.140;8.904;2023-08-12T01:16:29;13.77;;;5.53;;
11854;SDS011;5987;53.140;8.904;2023-08-12T01:19:40;9.57;;;4.43;;
11854;SDS011;5987;53.140;8.904;2023-08-12T01:22:46;6.70;;;4.83;;
11854;SDS011;5987;53.140;8.904;2023-08-12T01:25:56;10.77;;;5.37;;
11854;SDS011;5987;53.140;8.904;2023-08-12T01:29:00;9.77;;;4.77;;
11854;SDS011;5987;53.140;8.904;2023-08-12T01:32:07;7.63;;;4.50;;
11854;SDS011;5987;53.140;8.904;2023-08-12T01:35:20;12.10;;;6.07;;
11854;SDS011;5987;53.140;8.904;2023-08-12T01:38:32;11.03;;;6.37;;
11854;SDS011;5987;53.140;8.904;2023-08-12T01:41:42;10.77;;;6.50;;
11854;SDS011;5987;53.140;8.904;2023-08-12T01:44:46;13.43;;;5.77;;
11854;SDS011;5987;53.140;8.904;2023-08-12T01:47:52;9.30;;;5.60;;
11854;SDS011;5987;53.140;8.904;2023-08-12T01:50:56;9.83;;;5.40;;
11854;SDS011;5987;53.140;8.904;2023-08-12T01:54:00;11.13;;;6.37;;
11854;SDS011;5987;53.140;8.904;2023-08-12T01:57:05;8.73;;;6.37;;
11854;SDS011;5987;53.140;8.904;2023-08-12T02:00:11;9.43;;;6.53;;
11854;SDS011;5987;53.140;8.904;2023-08-12T02:03:15;12.13;;;7.57;;
11854;SDS011;5987;53.140;8.904;2023-08-12T02:06:19;10.23;;;6.60;;
11854;SDS011;5987;53.140;8.904;2023-08-12T02:09:23;12.33;;;6.17;;
11854;SDS011;5987;53.140;8.904;2023-08-12T02:12:28;11.53;;;7.43;;
11854;SDS011;5987;53.140;8.904;2023-08-12T02:15:32;14.80;;;7.63;;
11854;SDS011;5987;53.140;8.904;2023-08-12T02:18:36;12.50;;;7.37;;
11854;SDS011;5987;53.140;8.904;2023-08-12T02:21:39;15.20;;;8.00;;
11854;SDS011;5987;53.140;8.904;2023-08-12T02:24:44;16.97;;;8.03;;
11854;SDS011;5987;53.140;8.904;2023-08-12T02:27:49;11.70;;;7.73;;
11854;SDS011;5987;53.140;8.904;2023-08-12T02:30:53;12.30;;;8.43;;
11854;SDS011;5987;53.140;8.904;2023-08-12T02:33:56;19.47;;;8.97;;
11854;SDS011;5987;53.140;8.904;2023-08-12T02:37:00;18.27;;;9.07;;
11854;SDS011;5987;53.140;8.904;2023-08-12T02:40:04;12.17;;;8.97;;
11854;SDS011;5987;53.140;8.904;2023-08-12T02:43:11;11.47;;;6.93;;
11854;SDS011;5987;53.140;8.904;2023-08-12T02:46:15;19.37;;;9.33;;
11854;SDS011;5987;53.140;8.904;2023-08-12T02:49:20;11.53;;;7.27;;
11854;SDS011;5987;53.140;8.904;2023-08-12T02:52:24;16.27;;;9.13;;
11854;SDS011;5987;53.140;8.904;2023-08-12T02:55:28;14.70;;;10.97;;
11854;SDS011;5987;53.140;8.904;2023-08-12T02:58:35;18.73;;;10.23;;
11854;SDS011;5987;53.140;8.904;2023-08-12T03:01:40;19.33;;;10.17;;
11854;SDS011;5987;53.140;8.904;2023-08-12T03:04:44;16.70;;;8.93;;
11854;SDS011;5987;53.140;8.904;2023-08-12T03:07:48;15.80;;;9.87;;
11854;SDS011;5987;53.140;8.904;2023-08-12T03:10:57;14.13;;;7.53;;
11854;SDS011;5987;53.140;8.904;2023-08-12T03:14:03;10.47;;;7.53;;
11854;SDS011;5987;53.140;8.904;2023-08-12T03:17:07;11.70;;;7.40;;
11854;SDS011;5987;53.140;8.904;2023-08-12T03:20:12;9.97;;;7.10;;
11854;SDS011;5987;53.140;8.904;2023-08-12T03:23:16;14.13;;;7.87;;
11854;SDS011;5987;53.140;8.904;2023-08-12T03:26:19;16.03;;;8.67;;
11854;SDS011;5987;53.140;8.904;2023-08-12T03:29:25;17.07;;;9.07;;
11854;SDS011;5987;53.140;8.904;2023-08-12T03:32:28;8.77;;;6.80;;
11854;SDS011;5987;53.140;8.904;2023-08-12T03:35:32;12.90;;;7.07;;
11854;SDS011;5987;53.140;8.904;2023-08-12T03:38:36;11.33;;;6.87;;
11854;SDS011;5987;53.140;8.904;2023-08-12T03:41:39;13.20;;;5.87;;
11854;SDS011;5987;53.140;8.904;2023-08-12T03:44:45;10.37;;;6.03;;
11854;SDS011;5987;53.140;8.904;2023-08-12T03:47:48;9.93;;;6.70;;
11854;SDS011;5987;53.140;8.904;2023-08-12T03:50:52;18.00;;;8.90;;
11854;SDS011;5987;53.140;8.904;2023-08-12T03:53:56;9.53;;;6.60;;
11854;SDS011;5987;53.140;8.904;2023-08-12T03:57:00;10.30;;;7.77;;
11854;SDS011;5987;53.140;8.904;2023-08-12T04:00:06;9.23;;;7.30;;
11854;SDS011;5987;53.140;8.904;2023-08-12T04:03:11;9.80;;;7.50;;
11854;SDS011;5987;53.140;8.904;2023-08-12T04:06:16;10.83;;;6.87;;
11854;SDS011;5987;53.140;8.904;2023-08-12T04:09:19;10.53;;;7.07;;
11854;SDS011;5987;53.140;8.904;2023-08-12T04:12:23;13.93;;;9.03;;
11854;SDS011;5987;53.140;8.904;2023-08-12T04:15:28;14.73;;;7.37;;
11854;SDS011;5987;53.140;8.904;2023-08-12T04:18:32;25.30;;;10.53;;
11854;SDS011;5987;53.140;8.904;2023-08-12T04:21:36;12.20;;;8.97;;
11854;SDS011;5987;53.140;8.904;2023-08-12T04:24:40;21.23;;;9.27;;
11854;SDS011;5987;53.140;8.904;2023-08-12T04:27:43;12.03;;;7.77;;
11854;SDS011;5987;53.140;8.904;2023-08-12T04:30:50;11.97;;;7.83;;
11854;SDS011;5987;53.140;8.904;2023-08-12T04:33:54;17.20;;;9.40;;
11854;SDS011;5987;53.140;8.904;2023-08-12T04:36:58;12.07;;;8.80;;
11854;SDS011;5987;53.140;8.904;2023-08-12T04:40:02;9.70;;;6.50;;
11854;SDS011;5987;53.140;8.904;2023-08-12T04:43:09;16.47;;;8.70;;
11854;SDS011;5987;53.140;8.904;2023-08-12T04:46:16;10.63;;;7.73;;
11854;SDS011;5987;53.140;8.904;2023-08-12T04:49:20;11.77;;;8.17;;
11854;SDS011;5987;53.140;8.904;2023-08-12T04:52:25;10.23;;;7.70;;
11854;SDS011;5987;53.140;8.904;2023-08-12T04:55:29;10.70;;;6.90;;
11854;SDS011;5987;53.140;8.904;2023-08-12T04:58:32;10.37;;;7.17;;
11854;SDS011;5987;53.140;8.904;2023-08-12T05:01:38;15.53;;;9.50;;
11854;SDS011;5987;53.140;8.904;2023-08-12T05:05:02;13.13;;;8.53;;
11854;SDS011;5987;53.140;8.904;2023-08-12T05:08:06;15.53;;;8.80;;
11854;SDS011;5987;53.140;8.904;2023-08-12T05:11:10;15.37;;;9.37;;
11854;SDS011;5987;53.140;8.904;2023-08-12T05:14:14;14.10;;;8.20;;
11854;SDS011;5987;53.140;8.904;2023-08-12T05:17:19;16.93;;;10.27;;
11854;SDS011;5987;53.140;8.904;2023-08-12T05:20:22;13.73;;;8.97;;
11854;SDS011;5987;53.140;8.904;2023-08-12T05:23:26;16.53;;;9.57;;
11854;SDS011;5987;53.140;8.904;2023-08-12T05:26:30;14.07;;;8.20;;
11854;SDS011;5987;53.140;8.904;2023-08-12T05:29:36;14.87;;;9.77;;
11854;SDS011;5987;53.140;8.904;2023-08-12T05:32:41;15.57;;;9.50;;
11854;SDS011;5987;53.140;8.904;2023-08-12T05:35:46;13.67;;;9.83;;
11854;SDS011;5987;53.140;8.904;2023-08-12T05:38:50;14.53;;;10.67;;
11854;SDS011;5987;53.140;8.904;2023-08-12T05:41:54;13.83;;;9.47;;
11854;SDS011;5987;53.140;8.904;2023-08-12T05:44:58;13.40;;;9.40;;
11854;SDS011;5987;53.140;8.904;2023-08-12T05:48:03;16.60;;;10.70;;
11854;SDS011;5987;53.140;8.904;2023-08-12T05:51:08;15.73;;;9.53;;
11854;SDS011;5987;53.140;8.904;2023-08-12T05:54:12;17.77;;;10.60;;
11854;SDS011;5987;53.140;8.904;2023-08-12T05:57:17;15.77;;;10.33;;
11854;SDS011;5987;53.140;8.904;2023-08-12T06:00:21;12.97;;;9.00;;
11854;SDS011;5987;53.140;8.904;2023-08-12T06:03:26;15.07;;;10.47;;
11854;SDS011;5987;53.140;8.904;2023-08-12T06:06:30;14.07;;;9.50;;
11854;SDS011;5987;53.140;8.904;2023-08-12T06:09:33;18.97;;;10.67;;
11854;SDS011;5987;53.140;8.904;2023-08-12T06:12:37;16.33;;;9.67;;
11854;SDS011;5987;53.140;8.904;2023-08-12T06:15:55;19.13;;;9.87;;
11854;SDS011;5987;53.140;8.904;2023-08-12T06:19:01;16.57;;;11.33;;
11854;SDS011;5987;53.140;8.904;2023-08-12T06:22:05;17.00;;;10.90;;
11854;SDS011;5987;53.140;8.904;2023-08-12T06:25:09;19.23;;;10.97;;
11854;SDS011;5987;53.140;8.904;2023-08-12T06:28:12;17.53;;;12.23;;
11854;SDS011;5987;53.140;8.904;2023-08-12T06:31:16;22.83;;;13.03;;
11854;SDS011;5987;53.140;8.904;2023-08-12T06:34:21;26.03;;;14.70;;
11854;SDS011;5987;53.140;8.904;2023-08-12T06:37:25;18.60;;;12.47;;
11854;SDS011;5987;53.140;8.904;2023-08-12T06:40:28;19.07;;;12.60;;
11854;SDS011;5987;53.140;8.904;2023-08-12T06:43:33;20.37;;;13.13;;
11854;SDS011;5987;53.140;8.904;2023-08-12T06:46:37;16.97;;;12.30;;
11854;SDS011;5987;53.140;8.904;2023-08-12T06:49:42;19.60;;;13.03;;
11854;SDS011;5987;53.140;8.904;2023-08-12T06:52:46;23.23;;;13.20;;
11854;SDS011;5987;53.140;8.904;2023-08-12T06:55:50;16.27;;;12.07;;
11854;SDS011;5987;53.140;8.904;2023-08-12T06:58:53;18.30;;;12.03;;
11854;SDS011;5987;53.140;8.904;2023-08-12T07:01:57;16.93;;;12.27;;
11854;SDS011;5987;53.140;8.904;2023-08-12T07:05:03;30.60;;;15.03;;
11854;SDS011;5987;53.140;8.904;2023-08-12T07:08:07;19.57;;;13.53;;
11854;SDS011;5987;53.140;8.904;2023-08-12T07:11:11;18.67;;;12.03;;
11854;SDS011;5987;53.140;8.904;2023-08-12T07:14:15;22.30;;;13.67;;
11854;SDS011;5987;53.140;8.904;2023-08-12T07:17:19;18.13;;;12.97;;
11854;SDS011;5987;53.140;8.904;2023-08-12T07:20:24;18.50;;;11.07;;
11854;SDS011;5987;53.140;8.904;2023-08-12T07:23:28;19.20;;;11.43;;
11854;SDS011;5987;53.140;8.904;2023-08-12T07:26:31;21.40;;;13.13;;
11854;SDS011;5987;53.140;8.904;2023-08-12T07:29:35;22.20;;;14.20;;
11854;SDS011;5987;53.140;8.904;2023-08-12T07:32:39;18.07;;;11.77;;
11854;SDS011;5987;53.140;8.904;2023-08-12T07:35:44;20.33;;;13.47;;
11854;SDS011;5987;53.140;8.904;2023-08-12T07:38:48;17.60;;;13.07;;
11854;SDS011;5987;53.140;8.904;2023-08-12T07:41:52;22.73;;;14.20;;
11854;SDS011;5987;53.140;8.904;2023-08-12T07:44:56;26.10;;;13.83;;
11854;SDS011;5987;53.140;8.904;2023-08-12T07:47:59;19.57;;;12.67;;
11854;SDS011;5987;53.140;8.904;2023-08-12T07:51:04;21.97;;;14.83;;
11854;SDS011;5987;53.140;8.904;2023-08-12T07:54:08;23.67;;;14.93;;
11854;SDS011;5987;53.140;8.904;2023-08-12T07:57:12;19.83;;;12.80;;
11854;SDS011;5987;53.140;8.904;2023-08-12T08:00:16;25.07;;;14.73;;
11854;SDS011;5987;53.140;8.904;2023-08-12T08:03:21;22.20;;;14.47;;
11854;SDS011;5987;53.140;8.904;2023-08-12T08:06:26;22.77;;;14.63;;
11854;SDS011;5987;53.140;8.904;2023-08-12T08:09:30;24.83;;;15.40;;
11854;SDS011;5987;53.140;8.904;2023-08-12T08:12:35;20.90;;;14.73;;
11854;SDS011;5987;53.140;8.904;2023-08-12T08:15:39;24.87;;;15.90;;
11854;SDS011;5987;53.140;8.904;2023-08-12T08:18:43;26.30;;;15.47;;
11854;SDS011;5987;53.140;8.904;2023-08-12T08:21:48;23.17;;;14.17;;
11854;SDS011;5987;53.140;8.904;2023-08-12T08:24:52;18.27;;;12.73;;
11854;SDS011;5987;53.140;8.904;2023-08-12T08:27:55;17.10;;;12.57;;
11854;SDS011;5987;53.140;8.904;2023-08-12T08:30:59;20.87;;;13.10;;
11854;SDS011;5987;53.140;8.904;2023-08-12T08:34:03;17.37;;;12.03;;
11854;SDS011;5987;53.140;8.904;2023-08-12T08:37:09;19.20;;;12.90;;
11854;SDS011;5987;53.140;8.904;2023-08-12T08:40:12;14.13;;;10.87;;
11854;SDS011;5987;53.140;8.904;2023-08-12T08:43:17;15.10;;;10.63;;
11854;SDS011;5987;53.140;8.904;2023-08-12T08:46:24;17.60;;;11.07;;
11854;SDS011;5987;53.140;8.904;2023-08-12T08:49:28;21.00;;;13.30;;
11854;SDS011;5987;53.140;8.904;2023-08-12T08:52:34;22.33;;;13.43;;
11854;SDS011;5987;53.140;8.904;2023-08-12T08:55:40;19.40;;;14.13;;
11854;SDS011;5987;53.140;8.904;2023-08-12T08:58:44;16.27;;;11.57;;
11854;SDS011;5987;53.140;8.904;2023-08-12T09:01:49;16.03;;;10.80;;
11854;SDS011;5987;53.140;8.904;2023-08-12T09:04:54;15.53;;;10.93;;
11854;SDS011;5987;53.140;8.904;2023-08-12T09:08:00;19.80;;;13.10;;
11854;SDS011;5987;53.140;8.904;2023-08-12T09:11:08;18.80;;;11.60;;
11854;SDS011;5987;53.140;8.904;2023-08-12T09:14:12;16.17;;;10.70;;
11854;SDS011;5987;53.140;8.904;2023-08-12T09:17:16;14.97;;;11.57;;
11854;SDS011;5987;53.140;8.904;2023-08-12T09:20:20;15.87;;;11.30;;
11854;SDS011;5987;53.140;8.904;2023-08-12T09:23:27;15.23;;;10.73;;
11854;SDS011;5987;53.140;8.904;2023-08-12T09:26:31;16.40;;;11.50;;
11854;SDS011;5987;53.140;8.904;2023-08-12T09:29:35;16.73;;;11.40;;
11854;SDS011;5987;53.140;8.904;2023-08-12T09:32:39;19.47;;;13.20;;
11854;SDS011;5987;53.140;8.904;2023-08-12T09:35:43;18.27;;;12.87;;
11854;SDS011;5987;53.140;8.904;2023-08-12T09:38:48;19.93;;;12.30;;
11854;SDS011;5987;53.140;8.904;2023-08-12T09:41:51;19.83;;;13.73;;
11854;SDS011;5987;53.140;8.904;2023-08-12T09:44:56;13.50;;;10.60;;
11854;SDS011;5987;53.140;8.904;2023-08-12T09:48:00;18.30;;;12.17;;
11854;SDS011;5987;53.140;8.904;2023-08-12T09:51:04;21.70;;;12.23;;
11854;SDS011;5987;53.140;8.904;2023-08-12T09:54:09;17.87;;;13.17;;
11854;SDS011;5987;53.140;8.904;2023-08-12T09:57:17;26.43;;;14.90;;
11854;SDS011;5987;53.140;8.904;2023-08-12T10:00:25;19.50;;;12.83;;
11854;SDS011;5987;53.140;8.904;2023-08-12T10:03:28;20.67;;;13.33;;
11854;SDS011;5987;53.140;8.904;2023-08-12T10:06:34;20.87;;;12.93;;
11854;SDS011;5987;53.140;8.904;2023-08-12T10:09:41;12.20;;;10.50;;
11854;SDS011;5987;53.140;8.904;2023-08-12T10:12:46;20.30;;;13.70;;
11854;SDS011;5987;53.140;8.904;2023-08-12T10:15:51;19.80;;;12.60;;
11854;SDS011;5987;53.140;8.904;2023-08-12T10:18:56;20.63;;;14.07;;
11854;SDS011;5987;53.140;8.904;2023-08-12T10:22:02;19.17;;;13.70;;
11854;SDS011;5987;53.140;8.904;2023-08-12T10:25:08;21.20;;;13.47;;
11854;SDS011;5987;53.140;8.904;2023-08-12T10:28:12;17.67;;;12.70;;
11854;SDS011;5987;53.140;8.904;2023-08-12T10:31:16;21.07;;;14.40;;
11854;SDS011;5987;53.140;8.904;2023-08-12T10:34:23;18.73;;;13.07;;
11854;SDS011;5987;53.140;8.904;2023-08-12T10:37:31;23.77;;;14.60;;
11854;SDS011;5987;53.140;8.904;2023-08-12T10:40:37;25.10;;;14.63;;
11854;SDS011;5987;53.140;8.904;2023-08-12T10:43:48;22.80;;;14.30;;
11854;SDS011;5987;53.140;8.904;2023-08-12T10:46:56;18.37;;;14.03;;
11854;SDS011;5987;53.140;8.904;2023-08-12T10:50:01;29.33;;;16.23;;
11854;SDS011;5987;53.140;8.904;2023-08-12T10:53:20;23.87;;;13.83;;
11854;SDS011;5987;53.140;8.904;2023-08-12T10:56:29;22.50;;;15.93;;
11854;SDS011;5987;53.140;8.904;2023-08-12T10:59:51;24.17;;;14.60;;
11854;SDS011;5987;53.140;8.904;2023-08-12T11:02:59;20.20;;;15.50;;
11854;SDS011;5987;53.140;8.904;2023-08-12T11:06:09;25.90;;;15.10;;
11854;SDS011;5987;53.140;8.904;2023-08-12T11:09:13;31.23;;;18.27;;
11854;SDS011;5987;53.140;8.904;2023-08-12T11:12:18;28.27;;;16.77;;
11854;SDS011;5987;53.140;8.904;2023-08-12T11:15:32;28.60;;;17.17;;
11854;SDS011;5987;53.140;8.904;2023-08-12T11:18:39;26.87;;;17.07;;
11854;SDS011;5987;53.140;8.904;2023-08-12T11:21:44;26.13;;;15.80;;
11854;SDS011;5987;53.140;8.904;2023-08-12T11:24:49;28.13;;;18.57;;
11854;SDS011;5987;53.140;8.904;2023-08-12T11:27:55;32.13;;;18.33;;
11854;SDS011;5987;53.140;8.904;2023-08-12T11:31:00;25.60;;;17.17;;
11854;SDS011;5987;53.140;8.904;2023-08-12T11:34:04;28.20;;;18.77;;
11854;SDS011;5987;53.140;8.904;2023-08-12T11:37:09;22.37;;;15.67;;
11854;SDS011;5987;53.140;8.904;2023-08-12T11:40:13;17.63;;;13.13;;
11854;SDS011;5987;53.140;8.904;2023-08-12T11:43:22;16.60;;;13.10;;
11854;SDS011;5987;53.140;8.904;2023-08-12T11:46:25;17.57;;;13.33;;
11854;SDS011;5987;53.140;8.904;2023-08-12T11:49:29;16.67;;;11.33;;
11854;SDS011;5987;53.140;8.904;2023-08-12T11:52:33;19.97;;;11.80;;
11854;SDS011;5987;53.140;8.904;2023-08-12T11:55:39;13.73;;;10.63;;
11854;SDS011;5987;53.140;8.904;2023-08-12T11:58:44;20.43;;;12.43;;
11854;SDS011;5987;53.140;8.904;2023-08-12T12:01:54;17.93;;;13.27;;
11854;SDS011;5987;53.140;8.904;2023-08-12T12:04:58;19.53;;;14.43;;
11854;SDS011;5987;53.140;8.904;2023-08-12T12:08:02;18.57;;;13.10;;
11854;SDS011;5987;53.140;8.904;2023-08-12T12:11:10;19.73;;;13.50;;
11854;SDS011;5987;53.140;8.904;2023-08-12T12:14:15;16.47;;;12.53;;
11854;SDS011;5987;53.140;8.904;2023-08-12T12:17:20;16.37;;;11.60;;
11854;SDS011;5987;53.140;8.904;2023-08-12T12:20:25;20.70;;;13.47;;
11854;SDS011;5987;53.140;8.904;2023-08-12T12:23:31;16.10;;;13.13;;
11854;SDS011;5987;53.140;8.904;2023-08-12T12:26:35;16.13;;;11.23;;
11854;SDS011;5987;53.140;8.904;2023-08-12T12:29:41;12.93;;;10.57;;
11854;SDS011;5987;53.140;8.904;2023-08-12T12:32:45;14.63;;;11.17;;
11854;SDS011;5987;53.140;8.904;2023-08-12T12:35:49;15.60;;;10.70;;
11854;SDS011;5987;53.140;8.904;2023-08-12T12:39:00;16.33;;;10.20;;
11854;SDS011;5987;53.140;8.904;2023-08-12T12:42:05;13.27;;;10.20;;
11854;SDS011;5987;53.140;8.904;2023-08-12T12:45:10;15.13;;;10.43;;
11854;SDS011;5987;53.140;8.904;2023-08-12T12:48:14;15.90;;;9.30;;
11854;SDS011;5987;53.140;8.904;2023-08-12T12:51:18;12.77;;;9.73;;
11854;SDS011;5987;53.140;8.904;2023-08-12T12:54:22;14.13;;;9.67;;
11854;SDS011;5987;53.140;8.904;2023-08-12T12:57:26;12.10;;;8.90;;
11854;SDS011;5987;53.140;8.904;2023-08-12T13:00:31;11.10;;;7.90;;
11854;SDS011;5987;53.140;8.904;2023-08-12T13:03:35;9.67;;;7.40;;
11854;SDS011;5987;53.140;8.904;2023-08-12T13:06:40;9.57;;;7.60;;
11854;SDS011;5987;53.140;8.904;2023-08-12T13:09:43;10.33;;;7.50;;
11854;SDS011;5987;53.140;8.904;2023-08-12T13:12:47;11.43;;;7.83;;
11854;SDS011;5987;53.140;8.904;2023-08-12T13:15:52;11.80;;;8.17;;
11854;SDS011;5987;53.140;8.904;2023-08-12T13:18:56;10.93;;;7.37;;
11854;SDS011;5987;53.140;8.904;2023-08-12T13:22:01;8.00;;;7.13;;
11854;SDS011;5987;53.140;8.904;2023-08-12T13:25:05;7.37;;;6.17;;
11854;SDS011;5987;53.140;8.904;2023-08-12T13:28:12;8.20;;;6.90;;
11854;SDS011;5987;53.140;8.904;2023-08-12T13:31:17;9.23;;;7.13;;
11854;SDS011;5987;53.140;8.904;2023-08-12T13:34:21;7.93;;;6.70;;
11854;SDS011;5987;53.140;8.904;2023-08-12T13:37:25;11.47;;;7.40;;
11854;SDS011;5987;53.140;8.904;2023-08-12T13:40:28;15.07;;;8.40;;
11854;SDS011;5987;53.140;8.904;2023-08-12T13:43:32;9.83;;;7.77;;
11854;SDS011;5987;53.140;8.904;2023-08-12T13:46:37;17.17;;;9.33;;
11854;SDS011;5987;53.140;8.904;2023-08-12T13:49:44;13.83;;;7.27;;
11854;SDS011;5987;53.140;8.904;2023-08-12T13:52:48;8.20;;;5.13;;
11854;SDS011;5987;53.140;8.904;2023-08-12T13:55:52;7.73;;;5.43;;
11854;SDS011;5987;53.140;8.904;2023-08-12T13:58:55;6.97;;;6.10;;
11854;SDS011;5987;53.140;8.904;2023-08-12T14:02:01;6.80;;;5.67;;
11854;SDS011;5987;53.140;8.904;2023-08-12T14:05:05;8.57;;;5.60;;
11854;SDS011;5987;53.140;8.904;2023-08-12T14:08:10;8.03;;;6.10;;
11854;SDS011;5987;53.140;8.904;2023-08-12T14:11:13;6.93;;;5.83;;
11854;SDS011;5987;53.140;8.904;2023-08-12T14:14:17;6.80;;;5.23;;
11854;SDS011;5987;53.140;8.904;2023-08-12T14:17:23;6.00;;;5.03;;
11854;SDS011;5987;53.140;8.904;2023-08-12T14:20:27;7.57;;;5.43;;
11854;SDS011;5987;53.140;8.904;2023-08-12T14:23:31;6.10;;;4.27;;
11854;SDS011;5987;53.140;8.904;2023-08-12T14:26:35;5.47;;;4.60;;
11854;SDS011;5987;53.140;8.904;2023-08-12T14:29:38;6.00;;;4.67;;
11854;SDS011;5987;53.140;8.904;2023-08-12T14:32:44;4.27;;;3.87;;
11854;SDS011;5987;53.140;8.904;2023-08-12T14:35:51;2.43;;;2.10;;
11854;SDS011;5987;53.140;8.904;2023-08-12T14:38:56;1.37;;;0.93;;
11854;SDS011;5987;53.140;8.904;2023-08-12T14:41:59;0.50;;;0.50;;
11854;SDS011;5987;53.140;8.904;2023-08-12T14:45:25;1.50;;;0.80;;
11854;SDS011;5987;53.140;8.904;2023-08-12T14:48:30;1.80;;;1.40;;
11854;SDS011;5987;53.140;8.904;2023-08-12T14:51:35;0.60;;;0.60;;
11854;SDS011;5987;53.140;8.904;2023-08-12T14:54:38;2.70;;;0.80;;
11854;SDS011;5987;53.140;8.904;2023-08-12T14:57:42;0.80;;;0.50;;
11854;SDS011;5987;53.140;8.904;2023-08-12T15:00:46;1.47;;;0.57;;
11854;SDS011;5987;53.140;8.904;2023-08-12T15:03:52;2.00;;;0.43;;
11854;SDS011;5987;53.140;8.904;2023-08-12T15:06:56;0.50;;;0.50;;
11854;SDS011;5987;53.140;8.904;2023-08-12T15:10:00;0.43;;;0.43;;
11854;SDS011;5987;53.140;8.904;2023-08-12T15:13:04;0.50;;;0.50;;
11854;SDS011;5987;53.140;8.904;2023-08-12T15:16:08;0.80;;;0.60;;
11854;SDS011;5987;53.140;8.904;2023-08-12T15:19:14;0.80;;;0.80;;
11854;SDS011;5987;53.140;8.904;2023-08-12T15:22:18;2.20;;;0.70;;
11854;SDS011;5987;53.140;8.904;2023-08-12T15:25:21;0.60;;;0.43;;
11854;SDS011;5987;53.140;8.904;2023-08-12T15:28:25;0.43;;;0.43;;
11854;SDS011;5987;53.140;8.904;2023-08-12T15:31:29;1.10;;;0.90;;
11854;SDS011;5987;53.140;8.904;2023-08-12T15:34:34;0.80;;;0.63;;
11854;SDS011;5987;53.140;8.904;2023-08-12T15:37:38;1.70;;;0.70;;
11854;SDS011;5987;53.140;8.904;2023-08-12T15:40:42;0.60;;;0.60;;
11854;SDS011;5987;53.140;8.904;2023-08-12T15:43:45;0.67;;;0.60;;
11854;SDS011;5987;53.140;8.904;2023-08-12T15:46:49;1.37;;;0.50;;
11854;SDS011;5987;53.140;8.904;2023-08-12T15:49:54;2.93;;;0.50;;
11854;SDS011;5987;53.140;8.904;2023-08-12T15:52:58;0.47;;;0.47;;
11854;SDS011;5987;53.140;8.904;2023-08-12T15:56:02;2.33;;;0.50;;
11854;SDS011;5987;53.140;8.904;2023-08-12T15:59:06;1.10;;;0.70;;
11854;SDS011;5987;53.140;8.904;2023-08-12T16:02:10;0.50;;;0.43;;
11854;SDS011;5987;53.140;8.904;2023-08-12T16:05:16;0.70;;;0.67;;
11854;SDS011;5987;53.140;8.904;2023-08-12T16:08:20;1.30;;;0.37;;
11854;SDS011;5987;53.140;8.904;2023-08-12T16:11:24;1.03;;;0.73;;
11854;SDS011;5987;53.140;8.904;2023-08-12T16:14:28;2.00;;;0.60;;
11854;SDS011;5987;53.140;8.904;2023-08-12T16:17:31;0.60;;;0.50;;
11854;SDS011;5987;53.140;8.904;2023-08-12T16:20:37;0.80;;;0.60;;
11854;SDS011;5987;53.140;8.904;2023-08-12T16:23:40;0.87;;;0.40;;
11854;SDS011;5987;53.140;8.904;2023-08-12T16:26:44;0.90;;;0.70;;
11854;SDS011;5987;53.140;8.904;2023-08-12T16:29:48;0.40;;;0.40;;
11854;SDS011;5987;53.140;8.904;2023-08-12T16:32:52;0.70;;;0.70;;
11854;SDS011;5987;53.140;8.904;2023-08-12T16:35:57;1.37;;;0.60;;
11854;SDS011;5987;53.140;8.904;2023-08-12T16:39:01;0.97;;;0.80;;
11854;SDS011;5987;53.140;8.904;2023-08-12T16:42:05;1.10;;;0.50;;
11854;SDS011;5987;53.140;8.904;2023-08-12T16:45:22;1.20;;;0.70;;
11854;SDS011;5987;53.140;8.904;2023-08-12T16:48:26;0.80;;;0.60;;
11854;SDS011;5987;53.140;8.904;2023-08-12T16:51:31;0.70;;;0.50;;
11854;SDS011;5987;53.140;8.904;2023-08-12T16:54:35;3.03;;;0.60;;
11854;SDS011;5987;53.140;8.904;2023-08-12T16:57:39;1.77;;;0.80;;
11854;SDS011;5987;53.140;8.904;2023-08-12T17:00:42;1.23;;;1.10;;
11854;SDS011;5987;53.140;8.904;2023-08-12T17:03:48;1.63;;;0.70;;
11854;SDS011;5987;53.140;8.904;2023-08-12T17:06:53;1.33;;;1.07;;
11854;SDS011;5987;53.140;8.904;2023-08-12T17:09:57;0.87;;;0.80;;
11854;SDS011;5987;53.140;8.904;2023-08-12T17:13:01;0.93;;;0.90;;
11854;SDS011;5987;53.140;8.904;2023-08-12T17:16:04;0.70;;;0.67;;
11854;SDS011;5987;53.140;8.904;2023-08-12T17:19:08;1.40;;;1.07;;
11854;SDS011;5987;53.140;8.904;2023-08-12T17:22:14;0.83;;;0.83;;
11854;SDS011;5987;53.140;8.904;2023-08-12T17:25:18;1.90;;;0.83;;
11854;SDS011;5987;53.140;8.904;2023-08-12T17:28:22;1.10;;;1.00;;
11854;SDS011;5987;53.140;8.904;2023-08-12T17:31:26;1.50;;;0.90;;
11854;SDS011;5987;53.140;8.904;2023-08-12T17:34:29;1.87;;;0.80;;
11854;SDS011;5987;53.140;8.904;2023-08-12T17:37:36;2.97;;;1.93;;
11854;SDS011;5987;53.140;8.904;2023-08-12T17:40:41;4.20;;;1.30;;
11854;SDS011;5987;53.140;8.904;2023-08-12T17:43:45;1.23;;;0.87;;
11854;SDS011;5987;53.140;8.904;2023-08-12T17:46:49;1.20;;;0.87;;
11854;SDS011;5987;53.140;8.904;2023-08-12T17:49:52;3.10;;;1.30;;
11854;SDS011;5987;53.140;8.904;2023-08-12T17:52:58;4.47;;;1.20;;
11854;SDS011;5987;53.140;8.904;2023-08-12T17:56:02;2.90;;;1.43;;
11854;SDS011;5987;53.140;8.904;2023-08-12T17:59:06;3.63;;;1.23;;
11854;SDS011;5987;53.140;8.904;2023-08-12T18:02:09;1.80;;;1.03;;
11854;SDS011;5987;53.140;8.904;2023-08-12T18:05:14;1.63;;;1.20;;
11854;SDS011;5987;53.140;8.904;2023-08-12T18:08:19;2.87;;;1.90;;
11854;SDS011;5987;53.140;8.904;2023-08-12T18:11:23;3.23;;;1.20;;
11854;SDS011;5987;53.140;8.904;2023-08-12T18:14:28;5.63;;;1.37;;
11854;SDS011;5987;53.140;8.904;2023-08-12T18:17:33;4.33;;;2.43;;
11854;SDS011;5987;53.140;8.904;2023-08-12T18:20:37;5.03;;;3.07;;
11854;SDS011;5987;53.140;8.904;2023-08-12T18:23:42;6.93;;;3.37;;
11854;SDS011;5987;53.140;8.904;2023-08-12T18:26:46;5.57;;;3.87;;
11854;SDS011;5987;53.140;8.904;2023-08-12T18:29:50;8.57;;;3.20;;
11854;SDS011;5987;53.140;8.904;2023-08-12T18:32:54;3.27;;;2.27;;
11854;SDS011;5987;53.140;8.904;2023-08-12T18:35:57;2.80;;;2.03;;